Etusivu
METAR-TAF:

METAR-TAF

Lentoasemat :

Karachi, Pakistan

Leveyspiiri: 24-54N, Pituuspiiri: 067-08E, korkeus merenpinnasta: 21 m

Tämänhetkinen sää

Tämä raportti tehtiin 14 minuuttia sitten, kello 21.25 UTC
Tuuli 4 kn lounaasta
Lämpötila 26°C
Kosteus 74%
Ilmanpaine 1008 hPa
Näkyvyys: 6000 m
Hajonneita pilviä 2000 ft:n korkeudessa

METAR: OPKC 182125Z 22004KT 6000 BKN020 26/21 Q1008 NOSIG

Aika: 02:39 (21:39 UTC)

Sääennuste

Tämä raportti tehtiin 5 tuntia ja 39 minuuttia sitten, kello 16.00 UTC
Ennuste voimassa 18. päivästä klo 18 UTC - 19. päivään klo 24 UTC
Tuuli 8 kn lännestä/lounaasta puuskistuen 18 kn:hen
Näkyvyys: 6000 m
Hajanaisia pilviä 2000 ft:n korkeudessa
Ajoittain
19. päivästä klo 01 UTC - 19. päivään klo 05 UTC
Tuuli 10 kn lännestä
Näkyvyys: 5000 m
Hajanaisia pilviä 2000 ft:n korkeudessa
usvaa

TAF: OPKC 181600Z 1818/1924 24008G18KT 6000 SCT020 TEMPO 1901/1905 26010KT 5000 HZ SCT020

Säähavainnot ja -ennusteet yli 4000 lentoasemalta (METAR- ja TAF-raportit).

Käytössä olevat sääasemat on merkitty karttaan keltaisilla ja punaisilla pisteillä.

Aseta hiiri pisteen päälle nähdäksesi sääaseman nimen.

Klikkaa sitten nähdäksesi säähavainnot ja -ennusteet.

Kartan vaihtaminen: klikkaa mustalla rastilla varustettuja vihreitä pisteitä, niin voit zoomata sisään; viivalla varustettua vihreää pistettä, niin voit zoomata ulos tai vihreitä nuolia, niin pääset viereisille kartoille.


METAR-TAF: